Time;durP1;ratioP1;P1;durP2;ratioP2;P2;SDS_P1;SDS_P2;PMS_P1;PMS_P2;Temp;Humidity;BMP_temperature;BMP_pressure;BME280_temperature;BME280_humidity;BME280_pressure;Samples;Min_cycle;Max_cycle;Signal;HPM_P1;HPM_P2
2021/12/09 00:01:28;;;;;;;610.95;346.98;;;128.20;2252.80;;;;;;5028333;28;20033;-64
2021/12/09 00:03:59;;;;;;;423.85;206.55;;;128.40;2252.80;;;;;;5028451;28;20060;-63
2021/12/09 00:06:28;;;;;;;250.32;135.02;;;128.40;2252.80;;;;;;5028545;28;20037;-64
2021/12/09 00:08:57;;;;;;;288.30;159.90;;;128.40;2252.80;;;;;;5028481;28;20036;-63
2021/12/09 00:11:23;;;;;;;281.92;147.25;;;128.40;2252.80;;;;;;5028504;28;20098;-64
2021/12/09 00:13:49;;;;;;;230.02;116.65;;;128.40;2252.80;;;;;;5028454;28;20361;-63
2021/12/09 00:16:15;;;;;;;150.40;75.55;;;128.50;2252.80;;;;;;5032392;28;20025;-62
2021/12/09 00:18:43;;;;;;;165.50;80.97;;;128.60;2252.80;;;;;;5034887;28;20075;-63
2021/12/09 00:21:11;;;;;;;130.55;60.10;;;128.70;2252.80;;;;;;5035065;28;20075;-64
2021/12/09 00:23:37;;;;;;;174.50;82.68;;;128.80;2252.80;;;;;;5034972;28;20530;-63
2021/12/09 00:26:03;;;;;;;178.15;87.20;;;128.90;2252.80;;;;;;5034631;28;20029;-63
2021/12/09 00:28:29;;;;;;;124.97;60.40;;;153.60;2252.80;;;;;;5035157;28;20048;-64
2021/12/09 00:30:55;;;;;;;74.65;38.15;;;153.70;2252.80;;;;;;5034824;28;20487;-63
2021/12/09 00:33:20;;;;;;;87.95;42.08;;;153.70;2252.80;;;;;;5034843;28;20479;-64
2021/12/09 00:35:54;;;;;;;103.68;51.33;;;153.80;2252.80;;;;;;5034957;28;20073;-64
2021/12/09 00:38:24;;;;;;;;;;;154.00;2252.80;;;;;;5035412;28;20033;-64
2021/12/09 00:40:50;;;;;;;65.53;34.00;;;154.10;2252.80;;;;;;5034532;28;19912;-64
2021/12/09 00:43:18;;;;;;;117.28;55.95;;;154.10;2252.80;;;;;;5034950;28;20037;-63
2021/12/09 00:45:45;;;;;;;55.83;28.83;;;154.20;2252.80;;;;;;5034738;28;20033;-64
2021/12/09 00:48:11;;;;;;;101.90;51.17;;;154.30;2252.80;;;;;;5034540;28;20507;-65
2021/12/09 00:50:37;;;;;;;141.48;71.45;;;154.40;2252.80;;;;;;5034885;28;20044;-64
2021/12/09 00:53:02;;;;;;;144.98;69.32;;;154.40;2252.80;;;;;;5034154;28;20045;-63
2021/12/09 00:55:28;;;;;;;66.38;33.97;;;154.50;2252.80;;;;;;5035093;28;20112;-64
2021/12/09 00:57:54;;;;;;;114.25;57.28;;;179.20;2252.80;;;;;;5049695;28;20048;-63
2021/12/09 01:00:21;;;;;;;75.00;34.90;;;179.20;2252.80;;;;;;5034807;28;20026;-63
2021/12/09 01:02:47;;;;;;;22.08;14.50;;;179.40;2252.80;;;;;;5034738;28;20030;-64
2021/12/09 01:05:13;;;;;;;135.15;70.32;;;179.60;2252.80;;;;;;5034049;28;20021;-64
2021/12/09 01:07:41;;;;;;;24.73;15.60;;;179.60;2252.80;;;;;;5034861;28;20746;-64
2021/12/09 01:10:12;;;;;;;36.90;21.15;;;179.80;2252.80;;;;;;5034804;28;20030;-64
2021/12/09 01:12:37;;;;;;;34.25;21.48;;;179.90;2252.80;;;;;;5034742;28;20045;-64
2021/12/09 01:15:06;;;;;;;15.40;9.32;;;179.90;2252.80;;;;;;5034421;28;20391;-64
2021/12/09 01:17:32;;;;;;;19.42;11.15;;;179.80;2252.80;;;;;;5034458;28;20056;-63
2021/12/09 01:19:59;;;;;;;18.20;11.38;;;179.80;2252.80;;;;;;5034035;28;20463;-63
2021/12/09 01:22:34;;;;;;;14.43;9.02;;;179.80;2252.80;;;;;;5034016;28;20372;-64
2021/12/09 01:25:00;;;;;;;56.25;27.33;;;179.90;2252.80;;;;;;5034772;28;20117;-64
2021/12/09 01:27:26;;;;;;;140.25;69.38;;;179.90;2252.80;;;;;;5032061;28;20468;-63
2021/12/09 01:29:55;;;;;;;61.22;30.20;;;179.90;2252.80;;;;;;5031324;28;20087;-64
2021/12/09 01:32:29;;;;;;;33.17;16.40;;;179.90;2252.80;;;;;;5030919;28;20037;-64
2021/12/09 01:34:55;;;;;;;45.95;22.08;;;180.10;2252.80;;;;;;5031243;28;20037;-64
2021/12/09 01:37:20;;;;;;;99.13;47.80;;;204.90;2252.80;;;;;;5032749;28;20488;-64
2021/12/09 01:39:46;;;;;;;66.30;31.58;;;205.00;2252.80;;;;;;5033126;28;20029;-64
2021/12/09 01:42:12;;;;;;;35.92;18.38;;;205.10;2252.80;;;;;;5032676;28;20033;-64
2021/12/09 01:44:38;;;;;;;45.15;23.73;;;205.10;2252.80;;;;;;5032837;28;20521;-64
2021/12/09 01:47:03;;;;;;;52.40;31.33;;;205.20;2252.80;;;;;;5032450;28;20038;-64
2021/12/09 01:49:29;;;;;;;32.83;17.58;;;205.20;2252.80;;;;;;5032621;28;20038;-64
2021/12/09 01:51:55;;;;;;;65.57;33.47;;;205.20;2252.80;;;;;;5032088;28;20044;-63
2021/12/09 01:54:24;;;;;;;62.28;30.33;;;205.30;2252.80;;;;;;5032517;28;20091;-64
2021/12/09 01:56:50;;;;;;;311.50;126.65;;;205.40;2252.80;;;;;;5032466;28;20440;-64
2021/12/09 01:59:16;;;;;;;269.42;103.28;;;205.40;2252.80;;;;;;5032427;28;20068;-64
2021/12/09 02:01:42;;;;;;;269.10;103.80;;;205.40;2252.80;;;;;;5032119;28;20394;-64
2021/12/09 02:04:10;;;;;;;225.27;95.78;;;205.50;2252.80;;;;;;5032280;28;20068;-63
2021/12/09 02:06:40;;;;;;;84.85;34.95;;;205.50;2252.80;;;;;;5032204;28;20068;-64
2021/12/09 02:09:08;;;;;;;22.08;10.85;;;205.50;2252.80;;;;;;5032444;28;20035;-64
2021/12/09 02:11:34;;;;;;;11.85;6.88;;;205.50;2252.80;;;;;;5032179;28;20430;-63
2021/12/09 02:14:00;;;;;;;15.65;8.95;;;205.60;2252.80;;;;;;5019837;28;20030;-62
2021/12/09 02:16:27;;;;;;;9.15;5.63;;;205.60;2252.80;;;;;;5015765;28;20033;-62
2021/12/09 02:18:52;;;;;;;17.23;8.40;;;205.40;2252.80;;;;;;5031915;28;20495;-63
2021/12/09 02:21:27;;;;;;;8.65;4.65;;;205.40;2252.80;;;;;;5031791;28;20057;-63
2021/12/09 02:24:05;;;;;;;45.03;19.92;;;205.60;2252.80;;;;;;5031825;28;20051;-62
2021/12/09 02:26:34;;;;;;;297.02;128.18;;;205.60;2252.80;;;;;;5031958;28;20026;-63
2021/12/09 02:29:00;;;;;;;280.67;115.90;;;205.50;2252.80;;;;;;5031920;28;20025;-63
2021/12/09 02:31:28;;;;;;;64.43;27.23;;;205.40;2252.80;;;;;;5031735;28;20479;-63
2021/12/09 02:33:55;;;;;;;325.70;132.13;;;205.50;2252.80;;;;;;5031668;28;20039;-62
2021/12/09 02:36:22;;;;;;;69.28;33.35;;;205.30;2252.80;;;;;;5031615;28;20120;-63
2021/12/09 02:38:49;;;;;;;98.47;44.17;;;205.30;2252.80;;;;;;5031459;28;20041;-62
2021/12/09 02:41:19;;;;;;;129.45;57.58;;;205.30;2252.80;;;;;;5031720;28;20034;-62
2021/12/09 02:43:47;;;;;;;263.70;114.68;;;205.20;2252.80;;;;;;5031336;28;20192;-62
2021/12/09 02:46:15;;;;;;;31.30;18.65;;;205.20;2252.80;;;;;;5031327;28;20033;-63
2021/12/09 02:48:41;;;;;;;11.35;6.35;;;205.20;2252.80;;;;;;5031414;28;20033;-63
2021/12/09 02:51:07;;;;;;;12.02;5.88;;;205.10;2252.80;;;;;;5031257;28;20029;-63
2021/12/09 02:53:35;;;;;;;23.15;14.00;;;205.00;2252.80;;;;;;5031381;28;20049;-63
2021/12/09 02:56:01;;;;;;;29.42;17.67;;;205.10;2252.80;;;;;;5031538;28;20479;-62
2021/12/09 02:58:28;;;;;;;24.73;16.02;;;179.90;2252.80;;;;;;5031327;28;20121;-63
2021/12/09 03:00:59;;;;;;;24.13;16.30;;;179.40;2252.80;;;;;;5031184;28;20487;-63
2021/12/09 03:03:25;;;;;;;25.35;16.80;;;154.40;2252.80;;;;;;5030967;28;20041;-63
2021/12/09 03:05:57;;;;;;;26.70;18.10;;;154.50;2252.80;;;;;;5031102;28;20029;-65
2021/12/09 03:08:34;;;;;;;30.83;20.70;;;154.50;2252.80;;;;;;5031025;28;20104;-64
2021/12/09 03:11:21;;;;;;;17.42;12.15;;;179.20;2252.80;;;;;;5031008;28;20056;-64
2021/12/09 03:13:49;;;;;;;30.05;16.92;;;179.20;2252.80;;;;;;5031019;28;20107;-63
2021/12/09 03:16:19;;;;;;;49.58;27.30;;;179.20;2252.80;;;;;;5030653;28;20042;-64
2021/12/09 03:18:49;;;;;;;63.53;33.80;;;154.50;2252.80;;;;;;5030717;28;20026;-64
2021/12/09 03:21:22;;;;;;;54.63;26.45;;;154.50;2252.80;;;;;;5030613;28;20026;-64
2021/12/09 03:23:48;;;;;;;41.60;24.88;;;179.30;2252.80;;;;;;5030643;28;20061;-63
2021/12/09 03:26:17;;;;;;;26.27;16.40;;;179.50;2252.80;;;;;;5030498;28;20049;-64
2021/12/09 03:28:43;;;;;;;23.67;13.02;;;179.50;2252.80;;;;;;5030536;28;20029;-63
2021/12/09 03:31:09;;;;;;;48.83;27.38;;;179.60;2252.80;;;;;;5030600;28;20531;-62
2021/12/09 03:33:35;;;;;;;58.92;34.72;;;179.40;2252.80;;;;;;5030366;28;20116;-62
2021/12/09 03:36:05;;;;;;;38.53;26.83;;;154.40;2252.80;;;;;;5030449;28;20026;-63
2021/12/09 03:38:33;;;;;;;40.28;23.88;;;154.20;2252.80;;;;;;5030513;28;20037;-63
2021/12/09 03:40:59;;;;;;;102.18;54.35;;;154.30;2252.80;;;;;;5030638;28;20403;-62
2021/12/09 03:43:25;;;;;;;75.80;45.47;;;154.20;2252.80;;;;;;5030320;28;20033;-62
2021/12/09 03:45:55;;;;;;;40.25;26.52;;;154.20;2252.80;;;;;;5030330;28;20087;-63
2021/12/09 03:48:22;;;;;;;44.10;25.27;;;154.00;2252.80;;;;;;5030250;28;20490;-64
2021/12/09 03:50:49;;;;;;;74.57;39.97;;;153.90;2252.80;;;;;;5029626;28;20518;-63
2021/12/09 03:53:15;;;;;;;32.65;17.65;;;154.00;2252.80;;;;;;5030005;28;20049;-62
2021/12/09 03:55:41;;;;;;;30.27;20.20;;;154.00;2252.80;;;;;;5030395;28;20029;-63
2021/12/09 03:58:07;;;;;;;30.33;18.88;;;153.80;2252.80;;;;;;5030468;28;20102;-63
2021/12/09 04:00:33;;;;;;;22.80;14.70;;;153.70;2252.80;;;;;;5030297;28;20025;-63
2021/12/09 04:02:59;;;;;;;39.70;21.40;;;128.90;2252.80;;;;;;5030405;28;20052;-63
2021/12/09 04:05:25;;;;;;;39.72;24.52;;;153.70;2252.80;;;;;;5029966;28;20087;-63
2021/12/09 04:07:51;;;;;;;27.45;17.45;;;153.80;2252.80;;;;;;5030135;28;20115;-63
2021/12/09 04:10:17;;;;;;;80.28;46.38;;;153.90;2252.80;;;;;;5030149;28;20036;-63
2021/12/09 04:12:43;;;;;;;44.65;25.95;;;153.80;2252.80;;;;;;5030167;28;20041;-63
2021/12/09 04:15:09;;;;;;;76.22;42.17;;;154.10;2252.80;;;;;;5030194;28;20029;-63
2021/12/09 04:17:35;;;;;;;96.00;51.20;;;154.10;2252.80;;;;;;5029834;28;20499;-63
2021/12/09 04:20:02;;;;;;;102.65;52.35;;;154.00;2252.80;;;;;;5029849;28;20080;-64
2021/12/09 04:22:28;;;;;;;64.47;38.33;;;154.10;2252.80;;;;;;5029914;28;20060;-62
2021/12/09 04:24:54;;;;;;;25.52;15.30;;;154.00;2252.80;;;;;;5030078;28;20480;-63
2021/12/09 04:27:21;;;;;;;34.08;22.75;;;154.10;2252.80;;;;;;5030097;28;20025;-63
2021/12/09 04:29:47;;;;;;;47.13;28.88;;;154.20;2252.80;;;;;;5030048;28;20030;-63
2021/12/09 04:32:12;;;;;;;49.35;29.83;;;154.00;2252.80;;;;;;5029750;28;20038;-64
2021/12/09 04:34:38;;;;;;;76.20;47.35;;;153.80;2252.80;;;;;;5029975;28;20543;-64
2021/12/09 04:37:05;;;;;;;33.22;20.95;;;153.80;2252.80;;;;;;5029667;28;20030;-64
2021/12/09 04:39:30;;;;;;;32.90;19.63;;;153.70;2252.80;;;;;;5030076;28;20586;-63
2021/12/09 04:41:56;;;;;;;35.25;20.77;;;153.70;2252.80;;;;;;5029868;28;20049;-64
2021/12/09 04:44:22;;;;;;;33.65;21.02;;;153.70;2252.80;;;;;;5029850;28;20033;-65
2021/12/09 04:46:49;;;;;;;58.50;31.92;;;153.80;2252.80;;;;;;5029741;28;20029;-64
2021/12/09 04:49:15;;;;;;;66.68;38.53;;;153.80;2252.80;;;;;;5029660;28;20059;-64
2021/12/09 04:51:41;;;;;;;29.20;18.75;;;153.90;2252.80;;;;;;5029356;28;20025;-65
2021/12/09 04:54:08;;;;;;;26.80;16.90;;;153.90;2252.80;;;;;;5029759;28;20072;-65
2021/12/09 04:56:35;;;;;;;41.22;25.15;;;154.00;2252.80;;;;;;5029566;28;20030;-64
2021/12/09 04:59:02;;;;;;;28.25;16.88;;;153.90;2252.80;;;;;;5030060;28;20484;-64
2021/12/09 05:01:27;;;;;;;35.05;21.63;;;153.90;2252.80;;;;;;5029623;28;20124;-67
2021/12/09 05:03:53;;;;;;;55.13;31.63;;;154.00;2252.80;;;;;;5032307;28;20444;-63
2021/12/09 05:06:19;;;;;;;37.85;24.13;;;153.90;2252.80;;;;;;5033363;28;20025;-65
2021/12/09 05:08:48;;;;;;;35.95;21.00;;;153.70;2252.80;;;;;;5033299;28;20041;-65
2021/12/09 05:13:55;;;;;;;49.13;29.45;;;153.60;2252.80;;;;;;5033283;28;20233;-63
2021/12/09 05:16:21;;;;;;;41.90;28.13;;;153.80;2252.80;;;;;;5033311;28;20025;-65
2021/12/09 05:18:48;;;;;;;44.78;26.58;;;153.70;2252.80;;;;;;5033144;28;20525;-63
2021/12/09 05:21:15;;;;;;;39.38;24.85;;;153.70;2252.80;;;;;;5032883;28;20026;-64
2021/12/09 05:23:41;;;;;;;57.25;27.48;;;153.80;2252.80;;;;;;5032877;28;20446;-62
2021/12/09 05:26:08;;;;;;;45.83;27.70;;;153.80;2252.80;;;;;;5033248;28;20057;-64
2021/12/09 05:28:36;;;;;;;44.25;24.33;;;153.80;2252.80;;;;;;5032804;28;20116;-63
2021/12/09 05:33:50;;;;;;;84.93;47.53;;;153.80;2252.80;;;;;;5032974;28;20148;-64
2021/12/09 05:36:17;;;;;;;96.00;56.22;;;153.90;2252.80;;;;;;5032901;28;20079;-65
2021/12/09 05:38:43;;;;;;;43.92;26.00;;;154.10;2252.80;;;;;;5032589;28;20029;-64
2021/12/09 05:41:09;;;;;;;37.40;23.00;;;154.10;2252.80;;;;;;5032785;28;20033;-64
2021/12/09 05:43:37;;;;;;;35.55;21.85;;;153.90;2252.80;;;;;;5032725;28;20041;-65
2021/12/09 05:46:03;;;;;;;30.88;18.77;;;154.00;2252.80;;;;;;5032747;28;20083;-63
2021/12/09 05:48:31;;;;;;;38.50;21.30;;;153.90;2252.80;;;;;;5032666;28;20029;-64
2021/12/09 05:50:57;;;;;;;38.33;21.80;;;154.10;2252.80;;;;;;5032497;28;20033;-64
2021/12/09 05:53:22;;;;;;;23.77;14.57;;;154.20;2252.80;;;;;;5032173;28;20099;-63
2021/12/09 05:55:48;;;;;;;24.27;16.98;;;154.20;2252.80;;;;;;5032556;28;20104;-62
2021/12/09 05:58:17;;;;;;;25.45;16.90;;;154.10;2252.80;;;;;;5032427;28;20034;-63
2021/12/09 06:00:43;;;;;;;33.42;21.98;;;154.20;2252.80;;;;;;5032229;28;20203;-65
2021/12/09 06:03:09;;;;;;;30.02;16.20;;;154.20;2252.80;;;;;;5032430;28;20030;-64
2021/12/09 06:05:35;;;;;;;44.17;30.42;;;154.30;2252.80;;;;;;5032013;28;20029;-64
2021/12/09 06:08:02;;;;;;;35.80;24.15;;;154.40;2252.80;;;;;;5032058;28;20036;-65
2021/12/09 06:10:28;;;;;;;31.60;21.30;;;154.40;2252.80;;;;;;5032253;28;20361;-66
2021/12/09 06:12:53;;;;;;;31.08;21.42;;;154.20;2252.80;;;;;;5031670;28;20099;-65
2021/12/09 06:15:19;;;;;;;35.38;24.45;;;154.30;2252.80;;;;;;5032057;28;20488;-66
2021/12/09 06:17:45;;;;;;;27.88;18.20;;;154.20;2252.80;;;;;;5031888;28;20029;-66
2021/12/09 06:20:11;;;;;;;43.47;24.65;;;154.40;2252.80;;;;;;5031849;28;20026;-65
2021/12/09 06:22:37;;;;;;;41.08;25.15;;;154.20;2252.80;;;;;;5031799;28;20087;-64
2021/12/09 06:25:03;;;;;;;74.70;42.17;;;154.10;2252.80;;;;;;5031896;28;20435;-65
2021/12/09 06:27:29;;;;;;;35.90;21.63;;;154.20;2252.80;;;;;;5032001;28;20029;-65
2021/12/09 06:29:55;;;;;;;28.02;19.60;;;154.30;2252.80;;;;;;5031789;28;20082;-64
2021/12/09 06:32:21;;;;;;;35.85;22.75;;;154.30;2252.80;;;;;;5031761;28;20116;-62
2021/12/09 06:34:47;;;;;;;51.33;34.58;;;154.30;2252.80;;;;;;5031718;28;20045;-63
2021/12/09 06:37:12;;;;;;;55.35;32.10;;;154.40;2252.80;;;;;;5031764;28;20034;-66
2021/12/09 06:39:39;;;;;;;58.60;33.85;;;154.30;2252.80;;;;;;5031862;28;20044;-65
2021/12/09 06:42:05;;;;;;;105.15;65.43;;;154.40;2252.80;;;;;;5031481;28;20034;-64
2021/12/09 06:44:31;;;;;;;116.75;77.65;;;154.50;2252.80;;;;;;5031681;28;20068;-65
2021/12/09 06:46:57;;;;;;;61.88;38.80;;;179.20;2252.80;;;;;;5031699;28;20480;-63
2021/12/09 06:49:24;;;;;;;43.60;27.05;;;179.20;2252.80;;;;;;5031422;28;20026;-65
2021/12/09 06:51:50;;;;;;;42.97;29.80;;;179.20;2252.80;;;;;;5031200;28;20503;-65
2021/12/09 06:54:16;;;;;;;106.65;61.90;;;179.40;2252.80;;;;;;5031466;28;20025;-66
2021/12/09 06:56:42;;;;;;;82.07;49.00;;;179.40;2252.80;;;;;;5031242;28;20113;-62
2021/12/09 06:59:08;;;;;;;81.53;54.20;;;179.60;2252.80;;;;;;5031195;28;20384;-58
2021/12/09 07:01:35;;;;;;;62.47;36.95;;;179.70;2252.80;;;;;;5030853;28;20471;-62
2021/12/09 07:04:01;;;;;;;57.90;41.53;;;179.80;2252.80;;;;;;5031064;28;20128;-62
2021/12/09 07:06:27;;;;;;;87.85;57.28;;;179.80;2252.80;;;;;;5030957;28;20100;-65
2021/12/09 07:08:56;;;;;;;43.00;26.85;;;179.70;2252.80;;;;;;5030639;28;20043;-58
2021/12/09 07:11:22;;;;;;;96.68;68.07;;;179.60;2252.80;;;;;;5030932;28;20040;-64
2021/12/09 07:13:48;;;;;;;27.95;16.63;;;179.90;2252.80;;;;;;5031049;28;20025;-62
2021/12/09 07:16:14;;;;;;;24.30;17.00;;;179.70;2252.80;;;;;;5030703;28;20464;-67
2021/12/09 07:18:41;;;;;;;45.30;32.72;;;179.70;2252.80;;;;;;5030994;28;20030;-62
2021/12/09 07:21:07;;;;;;;110.32;74.47;;;179.90;2252.80;;;;;;5030676;28;20036;-62
2021/12/09 07:23:34;;;;;;;203.18;125.75;;;180.00;2252.80;;;;;;5030752;28;20125;-54
2021/12/09 07:26:01;;;;;;;48.60;32.10;;;204.80;2252.80;;;;;;5030312;28;20037;-57
2021/12/09 07:28:26;;;;;;;62.75;41.10;;;204.90;2252.80;;;;;;5030754;28;20072;-62
2021/12/09 07:30:52;;;;;;;84.75;51.22;;;205.00;2252.80;;;;;;5030567;28;20471;-61
2021/12/09 07:33:18;;;;;;;376.98;187.90;;;205.10;2252.80;;;;;;5030455;28;20130;-68
2021/12/09 07:35:44;;;;;;;168.93;93.82;;;205.20;2252.80;;;;;;5030337;28;20113;-57
2021/12/09 07:38:10;;;;;;;223.60;130.45;;;205.30;2252.80;;;;;;5030472;28;20124;-53
2021/12/09 07:40:36;;;;;;;280.40;144.98;;;205.30;2252.80;;;;;;5030459;28;20467;-60
2021/12/09 07:43:03;;;;;;;189.38;98.85;;;205.30;2252.80;;;;;;5030515;28;20037;-56
2021/12/09 07:45:29;;;;;;;72.10;40.15;;;205.30;2252.80;;;;;;5030598;28;20029;-69
2021/12/09 07:47:56;;;;;;;41.97;27.92;;;205.20;2252.80;;;;;;5012450;28;20437;-61
2021/12/09 07:50:24;;;;;;;46.35;30.55;;;205.00;2252.80;;;;;;5030327;28;20463;-66
2021/12/09 07:52:51;;;;;;;45.42;28.60;;;205.20;2252.80;;;;;;5030333;28;20566;-69
2021/12/09 07:55:19;;;;;;;51.05;34.30;;;205.40;2252.80;;;;;;5030765;28;20418;-69
2021/12/09 07:57:45;;;;;;;53.35;34.28;;;205.60;2252.80;;;;;;5030250;28;20039;-71
2021/12/09 08:00:16;;;;;;;75.80;48.30;;;230.40;2252.80;;;;;;5030167;28;20533;-60
2021/12/09 08:02:43;;;;;;;103.32;58.30;;;205.70;2252.80;;;;;;5030166;28;20029;-68
2021/12/09 08:05:10;;;;;;;120.78;71.20;;;230.40;2252.80;;;;;;5030152;28;20104;-65
2021/12/09 08:07:37;;;;;;;174.05;102.15;;;230.60;2252.80;;;;;;5030262;28;20060;-70
2021/12/09 08:10:04;;;;;;;154.70;96.63;;;230.70;2252.80;;;;;;5030386;28;20026;-69
2021/12/09 08:12:31;;;;;;;133.63;88.95;;;230.80;2252.80;;;;;;5030321;28;20396;-70
2021/12/09 08:14:57;;;;;;;104.30;67.40;;;230.90;2252.80;;;;;;5030106;28;20029;-70
2021/12/09 08:17:44;;;;;;;63.20;45.42;;;231.00;2252.80;;;;;;5029848;28;20038;-70
2021/12/09 08:20:13;;;;;;;71.38;47.92;;;230.90;2252.80;;;;;;5029835;28;20382;-70
2021/12/09 08:22:40;;;;;;;61.13;41.72;;;231.10;2252.80;;;;;;5029672;28;20033;-68
2021/12/09 08:25:07;;;;;;;71.18;48.17;;;230.70;2252.80;;;;;;5029861;28;20155;-70
2021/12/09 08:27:34;;;;;;;75.13;52.83;;;230.60;2252.80;;;;;;5029991;28;20116;-66
2021/12/09 08:30:02;;;;;;;71.97;48.60;;;230.60;2252.80;;;;;;5030117;28;20111;-64
2021/12/09 08:32:28;;;;;;;102.25;67.32;;;230.40;2252.80;;;;;;5029792;28;20468;-65
2021/12/09 08:34:54;;;;;;;124.53;81.72;;;230.40;2252.80;;;;;;5029633;28;20041;-67
2021/12/09 08:37:20;;;;;;;104.43;72.18;;;230.50;2252.80;;;;;;5032237;28;20026;-67
2021/12/09 08:39:46;;;;;;;93.18;62.15;;;230.70;2252.80;;;;;;5033705;28;20080;-66
2021/12/09 08:42:14;;;;;;;87.90;59.45;;;230.70;2252.80;;;;;;5033821;28;20025;-62
2021/12/09 08:44:39;;;;;;;180.35;129.20;;;230.70;2252.80;;;;;;5033801;28;20060;-67
2021/12/09 08:47:05;;;;;;;90.32;59.92;;;230.90;2252.80;;;;;;5033575;28;20037;-60
2021/12/09 08:49:31;;;;;;;79.28;54.47;;;230.60;2252.80;;;;;;5033568;28;20022;-60
2021/12/09 08:51:57;;;;;;;86.80;61.20;;;230.80;2252.80;;;;;;5033547;28;20041;-56
2021/12/09 08:54:23;;;;;;;71.68;51.50;;;230.70;2252.80;;;;;;5033376;28;20033;-67
2021/12/09 08:56:51;;;;;;;75.97;53.45;;;230.70;2252.80;;;;;;5048438;28;20045;-70
2021/12/09 08:59:18;;;;;;;80.95;56.72;;;230.80;2252.80;;;;;;5033681;28;20033;-69
2021/12/09 09:01:44;;;;;;;99.93;70.47;;;230.90;2252.80;;;;;;5033322;28;20024;-69
2021/12/09 09:04:10;;;;;;;62.58;45.03;;;230.90;2252.80;;;;;;5033384;28;20029;-68
2021/12/09 09:06:37;;;;;;;46.10;29.20;;;231.10;2252.80;;;;;;5033328;28;20040;-67
2021/12/09 09:09:04;;;;;;;34.83;25.00;;;231.20;2252.80;;;;;;5033283;28;20033;-66
2021/12/09 09:11:31;;;;;;;51.85;29.98;;;231.20;2252.80;;;;;;5033441;28;20032;-66
2021/12/09 09:13:58;;;;;;;33.47;21.52;;;256.00;2252.80;;;;;;5033436;28;20033;-68
2021/12/09 09:16:24;;;;;;;45.78;28.80;;;256.00;2252.80;;;;;;5033115;28;20152;-67
2021/12/09 09:18:53;;;;;;;84.68;47.58;;;256.30;2252.80;;;;;;5033232;28;20028;-65
2021/12/09 09:21:19;;;;;;;54.30;33.38;;;256.30;2252.80;;;;;;5033096;28;20080;-67
2021/12/09 09:23:45;;;;;;;54.63;30.85;;;256.30;2252.80;;;;;;5032764;28;20064;-66
2021/12/09 09:26:11;;;;;;;42.85;24.00;;;256.20;2252.80;;;;;;5033120;28;20589;-66
2021/12/09 09:28:37;;;;;;;63.75;39.25;;;256.20;2252.80;;;;;;5033009;28;20028;-67
2021/12/09 09:31:04;;;;;;;63.42;38.10;;;256.10;2252.80;;;;;;5032924;28;20041;-63
2021/12/09 09:33:31;;;;;;;35.20;20.73;;;256.20;2252.80;;;;;;5033403;28;20525;-66
2021/12/09 09:35:58;;;;;;;33.08;23.40;;;256.20;2252.80;;;;;;5032842;28;20017;-66
2021/12/09 09:38:24;;;;;;;36.80;23.20;;;256.20;2252.80;;;;;;5032788;28;20061;-67
2021/12/09 09:41:03;;;;;;;26.58;18.98;;;256.20;2252.80;;;;;;5032979;28;20022;-66
2021/12/09 09:43:43;;;;;;;34.75;23.05;;;256.30;2252.80;;;;;;5032744;28;20117;-56
2021/12/09 09:46:13;;;;;;;62.38;38.50;;;256.30;2252.80;;;;;;5014645;28;20456;-60
2021/12/09 09:48:40;;;;;;;67.53;36.28;;;256.70;2252.80;;;;;;5031704;28;20022;-53
2021/12/09 09:51:09;;;;;;;39.17;26.17;;;256.80;2252.80;;;;;;5032310;28;20034;-63
2021/12/09 09:53:36;;;;;;;70.22;44.58;;;256.90;2252.80;;;;;;5032204;28;20443;-60
2021/12/09 09:56:08;;;;;;;295.85;186.13;;;256.70;2252.80;;;;;;5032476;28;20025;-66
2021/12/09 09:58:34;;;;;;;103.00;65.65;;;256.70;2252.80;;;;;;5032249;28;20052;-63
2021/12/09 10:01:00;;;;;;;109.45;68.43;;;256.50;2252.80;;;;;;5031333;28;20107;-66
2021/12/09 10:03:30;;;;;;;73.82;49.80;;;256.50;2252.80;;;;;;5032546;28;20375;-66
2021/12/09 10:05:57;;;;;;;51.83;33.38;;;256.50;2252.80;;;;;;5031872;28;20109;-68
2021/12/09 10:08:24;;;;;;;76.72;44.45;;;256.60;2252.80;;;;;;5031648;28;20052;-65
2021/12/09 10:10:50;;;;;;;86.90;55.63;;;256.80;2252.80;;;;;;5032091;28;20025;-60
2021/12/09 10:13:18;;;;;;;86.00;54.47;;;281.60;2278.40;;;;;;5031805;28;20052;-67
2021/12/09 10:15:50;;;;;;;78.47;47.70;;;281.80;2278.40;;;;;;5031930;28;20018;-66
2021/12/09 10:18:34;;;;;;;44.15;26.38;;;282.30;2278.40;;;;;;5031930;28;20043;-64
2021/12/09 10:21:00;;;;;;;21.42;12.80;;;307.20;2304.00;;;;;;5032155;28;20044;-67
2021/12/09 10:23:45;;;;;;;29.17;19.40;;;307.20;2304.00;;;;;;5031694;28;20057;-67
2021/12/09 10:26:14;;;;;;;26.45;20.30;;;307.20;2304.00;;;;;;5031645;28;20030;-63
2021/12/09 10:28:44;;;;;;;42.47;33.58;;;307.30;2304.00;;;;;;5032068;28;20029;-67
2021/12/09 10:31:34;;;;;;;82.95;67.85;;;307.30;2304.00;;;;;;5031998;28;20018;-67
2021/12/09 10:34:17;;;;;;;45.58;40.90;;;307.30;2304.00;;;;;;5032018;28;20442;-66
2021/12/09 10:36:54;;;;;;;34.38;29.92;;;307.30;2304.00;;;;;;5031734;28;20053;-67
2021/12/09 10:39:40;;;;;;;30.52;27.08;;;282.50;2278.40;;;;;;5031852;28;20088;-66
2021/12/09 10:42:26;;;;;;;24.17;20.13;;;282.50;2278.40;;;;;;5031744;28;20025;-63
2021/12/09 10:45:04;;;;;;;25.08;19.67;;;282.50;2278.40;;;;;;5031380;28;20026;-61
2021/12/09 10:50:21;;;;;;;28.42;25.33;;;282.50;2278.40;;;;;;5031370;28;20464;-60
2021/12/09 10:52:52;;;;;;;40.60;31.65;;;282.50;2278.40;;;;;;5031107;28;20041;-66
2021/12/09 10:55:25;;;;;;;83.80;44.38;;;307.30;2304.00;;;;;;5031302;28;20049;-65
2021/12/09 10:57:58;;;;;;;120.80;98.43;;;307.30;2304.00;;;;;;5031153;28;20056;-59
2021/12/09 11:00:35;;;;;;;74.47;60.78;;;307.40;2304.00;;;;;;5031104;28;20087;-66
2021/12/09 11:03:05;;;;;;;90.15;67.88;;;307.40;2304.00;;;;;;5031404;28;20464;-66
2021/12/09 11:05:33;;;;;;;61.92;39.13;;;307.50;2304.00;;;;;;5031015;28;20528;-57
2021/12/09 11:08:41;;;;;;;56.45;37.92;;;307.40;2304.00;;;;;;5031211;28;20024;-55
2021/12/09 11:11:08;;;;;;;81.47;52.65;;;307.40;2304.00;;;;;;4953999;28;20158;-55
2021/12/09 11:13:45;;;;;;;92.60;50.50;;;307.50;2304.00;;;;;;4969914;28;20070;-58
2021/12/09 11:16:22;;;;;;;45.97;35.60;;;307.60;2304.00;;;;;;4969853;28;20035;-63
2021/12/09 11:18:47;;;;;;;110.78;83.82;;;307.40;2304.00;;;;;;4970056;28;20042;-62
2021/12/09 11:21:31;;;;;;;130.63;95.38;;;307.30;2304.00;;;;;;4969652;28;20027;-61
2021/12/09 11:24:00;;;;;;;146.65;109.88;;;307.30;2304.00;;;;;;4969790;28;20065;-66
2021/12/09 11:26:46;;;;;;;140.48;110.90;;;307.20;2304.00;;;;;;4969969;28;20614;-64
2021/12/09 11:29:20;;;;;;;87.28;61.92;;;282.50;2278.40;;;;;;4969749;28;20050;-65
2021/12/09 11:35:09;;;;;;;105.85;73.30;;;307.30;2304.00;;;;;;4969850;28;20039;-55
2021/12/09 11:37:45;;;;;;;59.15;44.75;;;307.30;2304.00;;;;;;4969560;28;20381;-59
2021/12/09 11:40:24;;;;;;;37.50;29.08;;;307.20;2304.00;;;;;;4969800;28;20035;-65
2021/12/09 11:42:58;;;;;;;63.28;49.15;;;307.20;2304.00;;;;;;5026472;28;20427;-61
2021/12/09 11:45:28;;;;;;;60.78;42.20;;;282.50;2278.40;;;;;;5030265;28;20545;-60
2021/12/09 11:47:55;;;;;;;126.88;77.00;;;282.50;2278.40;;;;;;5030343;28;20045;-62
2021/12/09 11:50:24;;;;;;;66.38;45.78;;;282.50;2278.40;;;;;;5030096;28;20029;-59
2021/12/09 11:52:52;;;;;;;64.82;50.53;;;282.40;2278.40;;;;;;5030213;28;20037;-64
2021/12/09 11:55:21;;;;;;;35.63;26.65;;;282.50;2278.40;;;;;;5030571;28;20025;-61
2021/12/09 11:58:11;;;;;;;18.25;13.63;;;282.50;2278.40;;;;;;5030382;28;20155;-53
2021/12/09 12:12:42;;;;;;;142.10;105.40;;;307.20;2304.00;;;;;;4968966;28;20473;-54
2021/12/09 12:21:38;;;;;;;17.63;13.63;;;307.50;2304.00;;;;;;4969241;28;20050;-54
2021/12/09 12:32:42;;;;;;;137.90;100.63;;;282.50;2278.40;;;;;;4969038;28;20074;-62
2021/12/09 12:40:32;;;;;;;196.75;140.57;;;282.50;2278.40;;;;;;4969313;28;20030;-58
2021/12/09 12:43:03;;;;;;;161.23;118.07;;;307.40;2304.00;;;;;;4969067;28;20035;-63
2021/12/09 12:51:18;;;;;;;151.90;95.72;;;307.80;2304.00;;;;;;5010086;28;20384;-65